sensor_id;sensor_type;location;lat;lon;timestamp;temperature;humidity
39519;DHT22;25200;53.394;10.414;2022-10-31T00:01:34;12.50;91.00
39519;DHT22;25200;53.394;10.414;2022-10-31T00:04:00;12.50;91.10
39519;DHT22;25200;53.394;10.414;2022-10-31T00:06:26;12.50;91.00
39519;DHT22;25200;53.394;10.414;2022-10-31T00:08:54;12.50;91.00
39519;DHT22;25200;53.394;10.414;2022-10-31T00:11:20;12.40;91.10
39519;DHT22;25200;53.394;10.414;2022-10-31T00:13:46;12.40;91.00
39519;DHT22;25200;53.394;10.414;2022-10-31T00:16:23;12.40;91.10
39519;DHT22;25200;53.394;10.414;2022-10-31T00:18:50;12.40;91.20
39519;DHT22;25200;53.394;10.414;2022-10-31T00:21:16;12.30;91.00
39519;DHT22;25200;53.394;10.414;2022-10-31T00:23:42;12.30;91.10
39519;DHT22;25200;53.394;10.414;2022-10-31T00:26:08;12.30;91.40
39519;DHT22;25200;53.394;10.414;2022-10-31T00:28:33;12.30;91.10
39519;DHT22;25200;53.394;10.414;2022-10-31T00:31:00;12.20;91.30
39519;DHT22;25200;53.394;10.414;2022-10-31T00:33:27;12.20;91.50
39519;DHT22;25200;53.394;10.414;2022-10-31T00:35:53;12.20;91.40
39519;DHT22;25200;53.394;10.414;2022-10-31T00:38:19;12.10;91.20
39519;DHT22;25200;53.394;10.414;2022-10-31T00:40:45;12.10;91.20
39519;DHT22;25200;53.394;10.414;2022-10-31T00:43:10;12.10;91.30
39519;DHT22;25200;53.394;10.414;2022-10-31T00:45:36;12.10;91.40
39519;DHT22;25200;53.394;10.414;2022-10-31T00:48:02;12.00;91.30
39519;DHT22;25200;53.394;10.414;2022-10-31T00:50:27;12.10;91.40
39519;DHT22;25200;53.394;10.414;2022-10-31T00:52:53;12.00;91.30
39519;DHT22;25200;53.394;10.414;2022-10-31T00:55:19;12.10;91.30
39519;DHT22;25200;53.394;10.414;2022-10-31T00:57:47;12.00;91.30
39519;DHT22;25200;53.394;10.414;2022-10-31T01:00:13;12.00;91.30
39519;DHT22;25200;53.394;10.414;2022-10-31T01:02:39;12.00;91.30
39519;DHT22;25200;53.394;10.414;2022-10-31T01:05:05;11.90;91.30
39519;DHT22;25200;53.394;10.414;2022-10-31T01:07:31;11.90;91.30
39519;DHT22;25200;53.394;10.414;2022-10-31T01:09:56;11.90;91.40
39519;DHT22;25200;53.394;10.414;2022-10-31T01:12:22;11.90;91.30
39519;DHT22;25200;53.394;10.414;2022-10-31T01:14:48;11.90;91.40
39519;DHT22;25200;53.394;10.414;2022-10-31T01:17:14;11.90;91.30
39519;DHT22;25200;53.394;10.414;2022-10-31T01:19:39;11.90;91.30
39519;DHT22;25200;53.394;10.414;2022-10-31T01:22:05;11.90;91.20
39519;DHT22;25200;53.394;10.414;2022-10-31T01:24:32;11.90;91.30
39519;DHT22;25200;53.394;10.414;2022-10-31T01:26:57;11.80;91.30
39519;DHT22;25200;53.394;10.414;2022-10-31T01:29:23;11.80;91.30
39519;DHT22;25200;53.394;10.414;2022-10-31T01:31:49;11.80;91.30
39519;DHT22;25200;53.394;10.414;2022-10-31T01:34:16;11.80;91.30
39519;DHT22;25200;53.394;10.414;2022-10-31T01:36:44;11.80;91.20
39519;DHT22;25200;53.394;10.414;2022-10-31T01:39:12;11.80;91.30
39519;DHT22;25200;53.394;10.414;2022-10-31T01:41:41;11.80;91.30
39519;DHT22;25200;53.394;10.414;2022-10-31T01:46:45;11.70;91.20
39519;DHT22;25200;53.394;10.414;2022-10-31T01:49:16;11.70;91.30
39519;DHT22;25200;53.394;10.414;2022-10-31T01:51:58;11.70;91.40
39519;DHT22;25200;53.394;10.414;2022-10-31T01:54:30;11.70;91.40
39519;DHT22;25200;53.394;10.414;2022-10-31T01:56:58;11.70;91.60
39519;DHT22;25200;53.394;10.414;2022-10-31T01:59:26;11.70;91.30
39519;DHT22;25200;53.394;10.414;2022-10-31T02:01:54;11.70;91.40
39519;DHT22;25200;53.394;10.414;2022-10-31T02:04:20;11.70;91.30
39519;DHT22;25200;53.394;10.414;2022-10-31T02:06:53;11.70;91.40
39519;DHT22;25200;53.394;10.414;2022-10-31T02:09:20;11.70;91.30
39519;DHT22;25200;53.394;10.414;2022-10-31T02:11:51;11.70;91.30
39519;DHT22;25200;53.394;10.414;2022-10-31T02:14:18;11.60;91.30
39519;DHT22;25200;53.394;10.414;2022-10-31T02:16:43;11.70;91.40
39519;DHT22;25200;53.394;10.414;2022-10-31T02:19:13;11.60;91.40
39519;DHT22;25200;53.394;10.414;2022-10-31T02:21:56;11.70;91.40
39519;DHT22;25200;53.394;10.414;2022-10-31T02:30:27;11.60;91.50
39519;DHT22;25200;53.394;10.414;2022-10-31T02:33:15;11.60;91.40
39519;DHT22;25200;53.394;10.414;2022-10-31T02:35:53;11.60;91.30
39519;DHT22;25200;53.394;10.414;2022-10-31T02:38:29;11.60;91.30
39519;DHT22;25200;53.394;10.414;2022-10-31T02:46:49;11.50;91.40
39519;DHT22;25200;53.394;10.414;2022-10-31T02:51:47;11.50;91.50
39519;DHT22;25200;53.394;10.414;2022-10-31T02:54:24;11.50;91.70
39519;DHT22;25200;53.394;10.414;2022-10-31T02:57:04;11.50;91.70
39519;DHT22;25200;53.394;10.414;2022-10-31T02:59:31;11.50;91.40
39519;DHT22;25200;53.394;10.414;2022-10-31T03:10:22;11.50;91.60
39519;DHT22;25200;53.394;10.414;2022-10-31T03:15:51;11.50;91.50
39519;DHT22;25200;53.394;10.414;2022-10-31T03:18:31;11.50;91.50
39519;DHT22;25200;53.394;10.414;2022-10-31T03:20:59;11.50;91.50
39519;DHT22;25200;53.394;10.414;2022-10-31T03:23:30;11.50;91.90
39519;DHT22;25200;53.394;10.414;2022-10-31T03:26:00;11.50;91.80
39519;DHT22;25200;53.394;10.414;2022-10-31T03:28:30;11.50;91.70
39519;DHT22;25200;53.394;10.414;2022-10-31T03:30:58;11.60;91.90
39519;DHT22;25200;53.394;10.414;2022-10-31T03:33:28;11.60;91.80
39519;DHT22;25200;53.394;10.414;2022-10-31T03:35:57;11.60;91.70
39519;DHT22;25200;53.394;10.414;2022-10-31T03:38:25;11.60;91.80
39519;DHT22;25200;53.394;10.414;2022-10-31T03:40:51;11.60;91.40
39519;DHT22;25200;53.394;10.414;2022-10-31T03:43:26;11.60;91.40
39519;DHT22;25200;53.394;10.414;2022-10-31T03:45:54;11.60;91.50
39519;DHT22;25200;53.394;10.414;2022-10-31T03:48:20;11.60;91.30
39519;DHT22;25200;53.394;10.414;2022-10-31T03:51:01;11.60;91.40
39519;DHT22;25200;53.394;10.414;2022-10-31T03:53:32;11.60;91.50
39519;DHT22;25200;53.394;10.414;2022-10-31T03:56:23;11.50;91.70
39519;DHT22;25200;53.394;10.414;2022-10-31T03:59:02;11.50;91.70
39519;DHT22;25200;53.394;10.414;2022-10-31T04:01:31;11.50;91.70
39519;DHT22;25200;53.394;10.414;2022-10-31T04:03:58;11.50;91.60
39519;DHT22;25200;53.394;10.414;2022-10-31T04:06:24;11.40;91.80
39519;DHT22;25200;53.394;10.414;2022-10-31T04:08:55;11.40;91.70
39519;DHT22;25200;53.394;10.414;2022-10-31T04:11:27;11.40;92.20
39519;DHT22;25200;53.394;10.414;2022-10-31T04:13:54;11.40;92.00
39519;DHT22;25200;53.394;10.414;2022-10-31T04:16:22;11.40;91.90
39519;DHT22;25200;53.394;10.414;2022-10-31T04:18:49;11.40;91.80
39519;DHT22;25200;53.394;10.414;2022-10-31T04:21:14;11.40;92.00
39519;DHT22;25200;53.394;10.414;2022-10-31T04:23:40;11.40;91.90
39519;DHT22;25200;53.394;10.414;2022-10-31T04:26:05;11.40;92.00
39519;DHT22;25200;53.394;10.414;2022-10-31T04:28:31;11.40;91.60
39519;DHT22;25200;53.394;10.414;2022-10-31T04:30:59;11.40;91.80
39519;DHT22;25200;53.394;10.414;2022-10-31T04:33:24;11.40;91.90
39519;DHT22;25200;53.394;10.414;2022-10-31T04:35:50;11.40;92.00
39519;DHT22;25200;53.394;10.414;2022-10-31T04:38:16;11.40;92.00
39519;DHT22;25200;53.394;10.414;2022-10-31T04:40:41;11.30;91.90
39519;DHT22;25200;53.394;10.414;2022-10-31T04:43:07;11.30;91.90
39519;DHT22;25200;53.394;10.414;2022-10-31T04:45:33;11.30;92.00
39519;DHT22;25200;53.394;10.414;2022-10-31T04:47:58;11.30;92.10
39519;DHT22;25200;53.394;10.414;2022-10-31T04:50:24;11.30;92.10
39519;DHT22;25200;53.394;10.414;2022-10-31T04:52:49;11.30;92.00
39519;DHT22;25200;53.394;10.414;2022-10-31T04:55:15;11.30;92.10
39519;DHT22;25200;53.394;10.414;2022-10-31T04:57:45;11.30;92.10
39519;DHT22;25200;53.394;10.414;2022-10-31T05:00:13;11.20;92.00
39519;DHT22;25200;53.394;10.414;2022-10-31T05:05:10;11.30;92.10
39519;DHT22;25200;53.394;10.414;2022-10-31T05:07:43;11.30;92.20
39519;DHT22;25200;53.394;10.414;2022-10-31T05:10:11;11.30;92.20
39519;DHT22;25200;53.394;10.414;2022-10-31T05:12:38;11.30;92.10
39519;DHT22;25200;53.394;10.414;2022-10-31T05:15:10;11.30;91.90
39519;DHT22;25200;53.394;10.414;2022-10-31T05:17:36;11.40;92.00
39519;DHT22;25200;53.394;10.414;2022-10-31T05:20:01;11.30;92.00
39519;DHT22;25200;53.394;10.414;2022-10-31T05:22:27;11.40;91.70
39519;DHT22;25200;53.394;10.414;2022-10-31T05:24:52;11.40;92.10
39519;DHT22;25200;53.394;10.414;2022-10-31T05:27:18;11.50;92.10
39519;DHT22;25200;53.394;10.414;2022-10-31T05:29:44;11.50;92.30
39519;DHT22;25200;53.394;10.414;2022-10-31T05:32:09;11.50;92.10
39519;DHT22;25200;53.394;10.414;2022-10-31T05:34:35;11.60;92.10
39519;DHT22;25200;53.394;10.414;2022-10-31T05:37:00;11.70;92.30
39519;DHT22;25200;53.394;10.414;2022-10-31T05:39:26;11.70;92.30
39519;DHT22;25200;53.394;10.414;2022-10-31T05:41:52;11.70;92.00
39519;DHT22;25200;53.394;10.414;2022-10-31T05:44:17;11.80;92.10
39519;DHT22;25200;53.394;10.414;2022-10-31T05:46:43;11.80;92.20
39519;DHT22;25200;53.394;10.414;2022-10-31T05:49:08;11.90;91.80
39519;DHT22;25200;53.394;10.414;2022-10-31T05:51:34;11.90;91.60
39519;DHT22;25200;53.394;10.414;2022-10-31T05:54:00;11.90;91.50
39519;DHT22;25200;53.394;10.414;2022-10-31T05:56:25;12.00;91.50
39519;DHT22;25200;53.394;10.414;2022-10-31T05:58:51;12.00;91.50
39519;DHT22;25200;53.394;10.414;2022-10-31T06:01:16;12.00;91.40
39519;DHT22;25200;53.394;10.414;2022-10-31T06:03:42;12.10;91.40
39519;DHT22;25200;53.394;10.414;2022-10-31T06:06:08;12.10;91.40
39519;DHT22;25200;53.394;10.414;2022-10-31T06:08:33;12.10;91.40
39519;DHT22;25200;53.394;10.414;2022-10-31T06:10:59;12.10;91.40
39519;DHT22;25200;53.394;10.414;2022-10-31T06:13:24;12.20;91.40
39519;DHT22;25200;53.394;10.414;2022-10-31T06:15:50;12.20;91.30
39519;DHT22;25200;53.394;10.414;2022-10-31T06:18:16;12.20;91.40
39519;DHT22;25200;53.394;10.414;2022-10-31T06:20:41;12.20;91.30
39519;DHT22;25200;53.394;10.414;2022-10-31T06:23:07;12.30;91.40
39519;DHT22;25200;53.394;10.414;2022-10-31T06:25:33;12.30;91.30
39519;DHT22;25200;53.394;10.414;2022-10-31T06:27:58;12.30;91.30
39519;DHT22;25200;53.394;10.414;2022-10-31T06:30:24;12.30;91.30
39519;DHT22;25200;53.394;10.414;2022-10-31T06:32:50;12.30;91.40
39519;DHT22;25200;53.394;10.414;2022-10-31T06:35:16;12.40;91.40
39519;DHT22;25200;53.394;10.414;2022-10-31T06:37:42;12.40;91.30
39519;DHT22;25200;53.394;10.414;2022-10-31T06:40:08;12.40;91.40
39519;DHT22;25200;53.394;10.414;2022-10-31T06:42:34;12.40;91.40
39519;DHT22;25200;53.394;10.414;2022-10-31T06:45:00;12.50;91.40
39519;DHT22;25200;53.394;10.414;2022-10-31T06:47:25;12.50;91.30
39519;DHT22;25200;53.394;10.414;2022-10-31T06:49:51;12.50;91.30
39519;DHT22;25200;53.394;10.414;2022-10-31T06:52:16;12.50;91.30
39519;DHT22;25200;53.394;10.414;2022-10-31T06:54:42;12.50;91.30
39519;DHT22;25200;53.394;10.414;2022-10-31T06:57:08;12.60;91.40
39519;DHT22;25200;53.394;10.414;2022-10-31T06:59:33;12.60;91.30
39519;DHT22;25200;53.394;10.414;2022-10-31T07:01:59;12.60;91.30
39519;DHT22;25200;53.394;10.414;2022-10-31T07:04:25;12.60;91.30
39519;DHT22;25200;53.394;10.414;2022-10-31T07:06:51;12.60;91.30
39519;DHT22;25200;53.394;10.414;2022-10-31T07:09:18;12.70;91.30
39519;DHT22;25200;53.394;10.414;2022-10-31T07:11:43;12.70;91.30
39519;DHT22;25200;53.394;10.414;2022-10-31T07:14:09;12.70;91.30
39519;DHT22;25200;53.394;10.414;2022-10-31T07:16:34;12.70;91.30
39519;DHT22;25200;53.394;10.414;2022-10-31T07:19:00;12.80;91.30
39519;DHT22;25200;53.394;10.414;2022-10-31T07:21:26;12.80;91.30
39519;DHT22;25200;53.394;10.414;2022-10-31T07:23:51;12.80;91.20
39519;DHT22;25200;53.394;10.414;2022-10-31T07:26:17;12.80;91.20
39519;DHT22;25200;53.394;10.414;2022-10-31T07:28:42;12.80;91.20
39519;DHT22;25200;53.394;10.414;2022-10-31T07:31:08;12.90;91.30
39519;DHT22;25200;53.394;10.414;2022-10-31T07:33:34;12.90;91.30
39519;DHT22;25200;53.394;10.414;2022-10-31T07:35:59;12.90;91.40
39519;DHT22;25200;53.394;10.414;2022-10-31T07:38:25;12.90;91.30
39519;DHT22;25200;53.394;10.414;2022-10-31T07:40:52;13.00;91.30
39519;DHT22;25200;53.394;10.414;2022-10-31T07:43:18;13.00;91.30
39519;DHT22;25200;53.394;10.414;2022-10-31T07:45:51;13.00;91.20
39519;DHT22;25200;53.394;10.414;2022-10-31T07:48:17;13.10;91.30
39519;DHT22;25200;53.394;10.414;2022-10-31T07:50:43;13.10;91.30
39519;DHT22;25200;53.394;10.414;2022-10-31T07:53:13;13.10;91.30
39519;DHT22;25200;53.394;10.414;2022-10-31T07:55:39;13.20;91.30
39519;DHT22;25200;53.394;10.414;2022-10-31T07:58:10;13.20;91.30
39519;DHT22;25200;53.394;10.414;2022-10-31T08:00:37;13.20;91.40
39519;DHT22;25200;53.394;10.414;2022-10-31T08:03:10;13.30;91.30
39519;DHT22;25200;53.394;10.414;2022-10-31T08:05:37;13.30;91.40
39519;DHT22;25200;53.394;10.414;2022-10-31T08:08:04;13.30;91.40
39519;DHT22;25200;53.394;10.414;2022-10-31T08:10:30;13.40;91.40
39519;DHT22;25200;53.394;10.414;2022-10-31T08:13:00;13.40;91.40
39519;DHT22;25200;53.394;10.414;2022-10-31T08:15:26;13.50;91.60
39519;DHT22;25200;53.394;10.414;2022-10-31T08:17:52;13.50;91.60
39519;DHT22;25200;53.394;10.414;2022-10-31T08:20:19;13.50;91.60
39519;DHT22;25200;53.394;10.414;2022-10-31T08:22:55;13.60;91.60
39519;DHT22;25200;53.394;10.414;2022-10-31T08:25:22;13.60;91.60
39519;DHT22;25200;53.394;10.414;2022-10-31T08:27:54;13.60;91.70
39519;DHT22;25200;53.394;10.414;2022-10-31T08:30:22;13.70;91.90
39519;DHT22;25200;53.394;10.414;2022-10-31T08:32:57;13.70;91.80
39519;DHT22;25200;53.394;10.414;2022-10-31T08:35:23;13.70;91.90
39519;DHT22;25200;53.394;10.414;2022-10-31T08:37:53;13.80;91.90
39519;DHT22;25200;53.394;10.414;2022-10-31T08:40:19;13.80;91.90
39519;DHT22;25200;53.394;10.414;2022-10-31T08:42:45;13.90;91.90
39519;DHT22;25200;53.394;10.414;2022-10-31T08:45:10;14.00;92.00
39519;DHT22;25200;53.394;10.414;2022-10-31T08:47:36;14.00;91.90
39519;DHT22;25200;53.394;10.414;2022-10-31T08:50:02;14.10;91.80
39519;DHT22;25200;53.394;10.414;2022-10-31T08:52:28;14.10;91.90
39519;DHT22;25200;53.394;10.414;2022-10-31T08:54:53;14.10;91.90
39519;DHT22;25200;53.394;10.414;2022-10-31T08:57:19;14.20;91.90
39519;DHT22;25200;53.394;10.414;2022-10-31T08:59:45;14.20;91.70
39519;DHT22;25200;53.394;10.414;2022-10-31T09:02:10;14.20;91.80
39519;DHT22;25200;53.394;10.414;2022-10-31T09:04:36;14.20;91.80
39519;DHT22;25200;53.394;10.414;2022-10-31T09:07:02;14.30;91.90
39519;DHT22;25200;53.394;10.414;2022-10-31T09:09:27;14.30;91.90
39519;DHT22;25200;53.394;10.414;2022-10-31T09:11:53;14.40;91.90
39519;DHT22;25200;53.394;10.414;2022-10-31T09:14:19;14.40;91.90
39519;DHT22;25200;53.394;10.414;2022-10-31T09:16:44;14.40;91.80
39519;DHT22;25200;53.394;10.414;2022-10-31T09:19:10;14.40;91.80
39519;DHT22;25200;53.394;10.414;2022-10-31T09:21:35;14.50;91.90
39519;DHT22;25200;53.394;10.414;2022-10-31T09:24:01;14.50;91.90
39519;DHT22;25200;53.394;10.414;2022-10-31T09:26:26;14.50;91.80
39519;DHT22;25200;53.394;10.414;2022-10-31T09:28:52;14.60;91.90
39519;DHT22;25200;53.394;10.414;2022-10-31T09:31:18;14.60;91.90
39519;DHT22;25200;53.394;10.414;2022-10-31T09:33:43;14.60;91.80
39519;DHT22;25200;53.394;10.414;2022-10-31T09:36:09;14.70;91.80
39519;DHT22;25200;53.394;10.414;2022-10-31T09:38:35;14.70;91.80
39519;DHT22;25200;53.394;10.414;2022-10-31T09:41:18;14.70;92.00
39519;DHT22;25200;53.394;10.414;2022-10-31T09:52:23;14.90;92.00
39519;DHT22;25200;53.394;10.414;2022-10-31T09:54:56;14.90;91.90
39519;DHT22;25200;53.394;10.414;2022-10-31T09:57:34;14.90;91.90
39519;DHT22;25200;53.394;10.414;2022-10-31T10:00:04;14.90;91.90
39519;DHT22;25200;53.394;10.414;2022-10-31T10:02:38;14.90;91.80
39519;DHT22;25200;53.394;10.414;2022-10-31T10:05:14;14.90;91.90
39519;DHT22;25200;53.394;10.414;2022-10-31T10:08:18;14.90;91.90
39519;DHT22;25200;53.394;10.414;2022-10-31T10:10:53;14.90;91.80
39519;DHT22;25200;53.394;10.414;2022-10-31T10:16:00;14.90;91.90
39519;DHT22;25200;53.394;10.414;2022-10-31T10:21:36;14.90;92.00
39519;DHT22;25200;53.394;10.414;2022-10-31T10:27:16;14.90;92.00
39519;DHT22;25200;53.394;10.414;2022-10-31T10:30:00;14.90;92.10
39519;DHT22;25200;53.394;10.414;2022-10-31T10:32:38;14.90;92.00
39519;DHT22;25200;53.394;10.414;2022-10-31T10:35:23;15.00;92.00
39519;DHT22;25200;53.394;10.414;2022-10-31T10:37:52;15.00;92.00
39519;DHT22;25200;53.394;10.414;2022-10-31T10:40:24;15.00;92.00
39519;DHT22;25200;53.394;10.414;2022-10-31T11:00:45;15.30;92.10
39519;DHT22;25200;53.394;10.414;2022-10-31T11:03:16;15.30;92.00
39519;DHT22;25200;53.394;10.414;2022-10-31T11:05:56;15.30;92.00
39519;DHT22;25200;53.394;10.414;2022-10-31T11:08:27;15.40;92.00
39519;DHT22;25200;53.394;10.414;2022-10-31T11:13:23;15.50;92.00
39519;DHT22;25200;53.394;10.414;2022-10-31T11:18:21;15.50;92.00
39519;DHT22;25200;53.394;10.414;2022-10-31T11:20:55;15.50;92.10
39519;DHT22;25200;53.394;10.414;2022-10-31T11:23:23;15.60;92.10
39519;DHT22;25200;53.394;10.414;2022-10-31T11:25:57;15.60;92.00
39519;DHT22;25200;53.394;10.414;2022-10-31T11:28:24;15.60;92.00
39519;DHT22;25200;53.394;10.414;2022-10-31T11:30:56;15.70;92.10
39519;DHT22;25200;53.394;10.414;2022-10-31T11:36:27;15.80;92.00
39519;DHT22;25200;53.394;10.414;2022-10-31T11:38:53;15.80;92.10
39519;DHT22;25200;53.394;10.414;2022-10-31T11:41:36;15.80;91.90
39519;DHT22;25200;53.394;10.414;2022-10-31T11:44:21;15.80;91.90
39519;DHT22;25200;53.394;10.414;2022-10-31T11:47:02;15.80;91.80
39519;DHT22;25200;53.394;10.414;2022-10-31T11:49:35;15.80;91.90
39519;DHT22;25200;53.394;10.414;2022-10-31T11:52:06;15.80;91.70
39519;DHT22;25200;53.394;10.414;2022-10-31T11:57:31;15.80;91.70
39519;DHT22;25200;53.394;10.414;2022-10-31T12:00:03;15.70;91.70
39519;DHT22;25200;53.394;10.414;2022-10-31T12:02:29;15.70;91.70
39519;DHT22;25200;53.394;10.414;2022-10-31T12:05:11;15.70;91.90
39519;DHT22;25200;53.394;10.414;2022-10-31T12:07:43;15.70;92.00
39519;DHT22;25200;53.394;10.414;2022-10-31T12:10:13;15.70;92.00
39519;DHT22;25200;53.394;10.414;2022-10-31T12:12:48;15.80;92.00
39519;DHT22;25200;53.394;10.414;2022-10-31T12:15:35;15.80;92.00
39519;DHT22;25200;53.394;10.414;2022-10-31T12:21:11;15.90;91.80
39519;DHT22;25200;53.394;10.414;2022-10-31T12:24:01;15.90;91.90
39519;DHT22;25200;53.394;10.414;2022-10-31T12:26:42;15.90;91.90
39519;DHT22;25200;53.394;10.414;2022-10-31T12:34:43;16.10;91.90
39519;DHT22;25200;53.394;10.414;2022-10-31T12:51:32;16.30;92.00
39519;DHT22;25200;53.394;10.414;2022-10-31T12:54:32;16.30;91.80
39519;DHT22;25200;53.394;10.414;2022-10-31T12:57:16;16.30;91.70
39519;DHT22;25200;53.394;10.414;2022-10-31T12:59:50;16.20;91.60
39519;DHT22;25200;53.394;10.414;2022-10-31T13:02:21;16.20;91.70
39519;DHT22;25200;53.394;10.414;2022-10-31T13:04:56;16.20;91.80
39519;DHT22;25200;53.394;10.414;2022-10-31T13:07:39;16.20;91.80
39519;DHT22;25200;53.394;10.414;2022-10-31T13:10:19;16.20;91.80
39519;DHT22;25200;53.394;10.414;2022-10-31T13:12:49;16.20;91.70
39519;DHT22;25200;53.394;10.414;2022-10-31T13:15:19;16.30;91.80
39519;DHT22;25200;53.394;10.414;2022-10-31T13:17:48;16.30;91.70
39519;DHT22;25200;53.394;10.414;2022-10-31T13:22:50;16.30;91.70
39519;DHT22;25200;53.394;10.414;2022-10-31T13:25:24;16.30;91.70
39519;DHT22;25200;53.394;10.414;2022-10-31T13:28:03;16.30;91.70
39519;DHT22;25200;53.394;10.414;2022-10-31T13:30:37;16.40;91.70
39519;DHT22;25200;53.394;10.414;2022-10-31T13:38:25;16.40;91.70
39519;DHT22;25200;53.394;10.414;2022-10-31T13:41:04;16.40;91.60
39519;DHT22;25200;53.394;10.414;2022-10-31T13:48:59;16.30;91.50
39519;DHT22;25200;53.394;10.414;2022-10-31T13:51:34;16.20;91.60
39519;DHT22;25200;53.394;10.414;2022-10-31T13:54:32;16.10;91.80
39519;DHT22;25200;53.394;10.414;2022-10-31T13:56:58;16.10;91.30
39519;DHT22;25200;53.394;10.414;2022-10-31T13:59:26;16.00;91.80
39519;DHT22;25200;53.394;10.414;2022-10-31T14:01:59;15.90;91.80
39519;DHT22;25200;53.394;10.414;2022-10-31T14:04:44;15.90;91.80
39519;DHT22;25200;53.394;10.414;2022-10-31T14:07:14;15.90;91.80
39519;DHT22;25200;53.394;10.414;2022-10-31T14:12:44;15.80;91.80
39519;DHT22;25200;53.394;10.414;2022-10-31T14:15:24;15.80;91.70
39519;DHT22;25200;53.394;10.414;2022-10-31T14:18:05;15.80;91.60
39519;DHT22;25200;53.394;10.414;2022-10-31T14:20:37;15.80;91.80
39519;DHT22;25200;53.394;10.414;2022-10-31T14:26:07;15.80;91.90
39519;DHT22;25200;53.394;10.414;2022-10-31T14:28:41;15.70;91.50
39519;DHT22;25200;53.394;10.414;2022-10-31T14:31:50;15.70;91.50
39519;DHT22;25200;53.394;10.414;2022-10-31T14:50:36;15.50;91.90
39519;DHT22;25200;53.394;10.414;2022-10-31T14:53:04;15.50;92.00
39519;DHT22;25200;53.394;10.414;2022-10-31T14:55:32;15.40;91.70
39519;DHT22;25200;53.394;10.414;2022-10-31T14:58:04;15.40;91.50
39519;DHT22;25200;53.394;10.414;2022-10-31T15:00:32;15.40;91.50
39519;DHT22;25200;53.394;10.414;2022-10-31T15:03:21;15.40;91.50
39519;DHT22;25200;53.394;10.414;2022-10-31T15:05:54;15.30;91.40
39519;DHT22;25200;53.394;10.414;2022-10-31T15:08:44;15.30;91.50
39519;DHT22;25200;53.394;10.414;2022-10-31T15:11:25;15.20;91.40
39519;DHT22;25200;53.394;10.414;2022-10-31T15:13:55;15.20;91.50
39519;DHT22;25200;53.394;10.414;2022-10-31T15:16:33;15.10;91.40
39519;DHT22;25200;53.394;10.414;2022-10-31T15:19:04;15.20;91.50
39519;DHT22;25200;53.394;10.414;2022-10-31T15:21:30;15.10;91.50
39519;DHT22;25200;53.394;10.414;2022-10-31T15:24:01;15.10;91.40
39519;DHT22;25200;53.394;10.414;2022-10-31T15:26:38;15.10;91.40
39519;DHT22;25200;53.394;10.414;2022-10-31T15:29:11;15.00;91.30
39519;DHT22;25200;53.394;10.414;2022-10-31T15:31:37;15.00;91.30
39519;DHT22;25200;53.394;10.414;2022-10-31T15:34:15;15.00;91.30
39519;DHT22;25200;53.394;10.414;2022-10-31T15:36:41;14.90;91.30
39519;DHT22;25200;53.394;10.414;2022-10-31T15:39:11;14.90;91.30
39519;DHT22;25200;53.394;10.414;2022-10-31T15:41:52;14.80;91.30
39519;DHT22;25200;53.394;10.414;2022-10-31T15:44:28;14.90;91.30
39519;DHT22;25200;53.394;10.414;2022-10-31T15:47:05;14.80;91.30
39519;DHT22;25200;53.394;10.414;2022-10-31T15:49:38;14.80;91.30
39519;DHT22;25200;53.394;10.414;2022-10-31T15:54:51;14.80;91.30
39519;DHT22;25200;53.394;10.414;2022-10-31T15:57:17;14.70;91.30
39519;DHT22;25200;53.394;10.414;2022-10-31T15:59:46;14.70;91.30
39519;DHT22;25200;53.394;10.414;2022-10-31T16:02:13;14.70;91.30
39519;DHT22;25200;53.394;10.414;2022-10-31T16:05:00;14.70;91.40
39519;DHT22;25200;53.394;10.414;2022-10-31T16:07:27;14.70;91.40
39519;DHT22;25200;53.394;10.414;2022-10-31T16:10:00;14.70;91.40
39519;DHT22;25200;53.394;10.414;2022-10-31T16:12:45;14.70;91.40
39519;DHT22;25200;53.394;10.414;2022-10-31T16:15:15;14.60;91.40
39519;DHT22;25200;53.394;10.414;2022-10-31T16:17:44;14.60;91.40
39519;DHT22;25200;53.394;10.414;2022-10-31T16:20:21;14.60;91.40
39519;DHT22;25200;53.394;10.414;2022-10-31T16:22:49;14.60;91.40
39519;DHT22;25200;53.394;10.414;2022-10-31T16:25:23;14.60;91.40
39519;DHT22;25200;53.394;10.414;2022-10-31T16:27:52;14.50;91.30
39519;DHT22;25200;53.394;10.414;2022-10-31T16:32:58;14.50;91.40
39519;DHT22;25200;53.394;10.414;2022-10-31T16:37:57;14.50;91.40
39519;DHT22;25200;53.394;10.414;2022-10-31T16:40:23;14.50;91.40
39519;DHT22;25200;53.394;10.414;2022-10-31T16:42:49;14.50;91.40
39519;DHT22;25200;53.394;10.414;2022-10-31T16:45:21;14.50;91.40
39519;DHT22;25200;53.394;10.414;2022-10-31T16:47:47;14.50;91.40
39519;DHT22;25200;53.394;10.414;2022-10-31T16:50:26;14.50;91.40
39519;DHT22;25200;53.394;10.414;2022-10-31T16:52:53;14.50;91.40
39519;DHT22;25200;53.394;10.414;2022-10-31T16:55:19;14.40;91.40
39519;DHT22;25200;53.394;10.414;2022-10-31T16:57:49;14.40;91.40
39519;DHT22;25200;53.394;10.414;2022-10-31T17:00:18;14.40;91.40
39519;DHT22;25200;53.394;10.414;2022-10-31T17:02:45;14.40;91.40
39519;DHT22;25200;53.394;10.414;2022-10-31T17:05:13;14.40;91.40
39519;DHT22;25200;53.394;10.414;2022-10-31T17:07:40;14.40;91.40
39519;DHT22;25200;53.394;10.414;2022-10-31T17:10:07;14.40;91.40
39519;DHT22;25200;53.394;10.414;2022-10-31T17:12:33;14.40;91.40
39519;DHT22;25200;53.394;10.414;2022-10-31T17:14:59;14.40;91.40
39519;DHT22;25200;53.394;10.414;2022-10-31T17:17:25;14.40;91.40
39519;DHT22;25200;53.394;10.414;2022-10-31T17:19:51;14.40;91.40
39519;DHT22;25200;53.394;10.414;2022-10-31T17:22:16;14.30;91.40
39519;DHT22;25200;53.394;10.414;2022-10-31T17:24:42;14.30;91.40
39519;DHT22;25200;53.394;10.414;2022-10-31T17:27:08;14.30;91.40
39519;DHT22;25200;53.394;10.414;2022-10-31T17:29:33;14.30;91.40
39519;DHT22;25200;53.394;10.414;2022-10-31T17:32:00;14.30;91.40
39519;DHT22;25200;53.394;10.414;2022-10-31T17:34:28;14.30;91.40
39519;DHT22;25200;53.394;10.414;2022-10-31T17:36:53;14.30;91.40
39519;DHT22;25200;53.394;10.414;2022-10-31T17:39:19;14.30;91.40
39519;DHT22;25200;53.394;10.414;2022-10-31T17:41:46;14.30;91.40
39519;DHT22;25200;53.394;10.414;2022-10-31T17:44:14;14.30;91.40
39519;DHT22;25200;53.394;10.414;2022-10-31T17:46:39;14.30;91.40
39519;DHT22;25200;53.394;10.414;2022-10-31T17:49:05;14.30;91.40
39519;DHT22;25200;53.394;10.414;2022-10-31T17:51:33;14.30;91.40
39519;DHT22;25200;53.394;10.414;2022-10-31T17:53:59;14.30;91.40